Time;durP1;ratioP1;P1;durP2;ratioP2;P2;SDS_P1;SDS_P2;PMS_P1;PMS_P2;Temp;Humidity;BMP_temperature;BMP_pressure;BME280_temperature;BME280_humidity;BME280_pressure;Samples;Min_cycle;Max_cycle;Signal;HPM_P1;HPM_P2
2023/07/07 00:00:28;;;;;;;12.20;5.30;;;;;;;13.47;98.11;100367.05;109117;1256;72637;-64
2023/07/07 00:03:39;;;;;;;13.20;5.50;;;;;;;13.45;97.99;100365.58;109128;1256;61192;-64
2023/07/07 00:06:27;;;;;;;11.10;4.70;;;;;;;13.43;99.19;100364.81;109069;1256;61188;-63
2023/07/07 00:09:17;;;;;;;11.00;5.10;;;;;;;13.43;99.15;100365.25;109244;1256;72041;-62
2023/07/07 00:12:05;;;;;;;12.20;4.80;;;;;;;13.41;99.34;100366.48;109097;1256;67904;-60
2023/07/07 00:14:53;;;;;;;12.60;5.10;;;;;;;13.39;99.89;100368.45;108982;1257;71206;-61
2023/07/07 00:17:41;;;;;;;11.00;5.10;;;;;;;13.38;99.43;100363.52;109144;1257;59374;-62
2023/07/07 00:20:31;;;;;;;14.60;5.70;;;;;;;13.36;99.74;100364.20;109152;1257;61076;-61
2023/07/07 00:23:21;;;;;;;14.40;5.60;;;;;;;13.35;100.00;100364.66;109156;1257;73300;-63
2023/07/07 00:26:09;;;;;;;11.10;5.60;;;;;;;13.34;99.97;100361.16;108737;1257;245768;-61
2023/07/07 00:28:57;;;;;;;11.70;5.80;;;;;;;13.31;99.89;100358.70;109065;1258;71830;-62
2023/07/07 00:31:45;;;;;;;13.30;6.30;;;;;;;13.30;100.00;100358.46;109001;1257;59659;-64
2023/07/07 00:34:34;;;;;;;12.90;5.00;;;;;;;13.31;99.72;100364.05;109124;1258;61281;-61
2023/07/07 00:37:22;;;;;;;12.60;5.20;;;;;;;13.32;99.40;100362.42;109097;1257;72252;-62
2023/07/07 00:40:11;;;;;;;12.30;5.50;;;;;;;13.31;99.12;100362.08;109139;1257;66832;-63
2023/07/07 00:42:59;;;;;;;12.00;5.50;;;;;;;13.31;98.84;100364.30;109158;1257;71448;-62
2023/07/07 00:45:49;;;;;;;11.00;5.00;;;;;;;13.27;98.88;100364.19;109026;1257;60296;-61
2023/07/07 00:48:42;;;;;;;11.30;5.90;;;;;;;13.24;98.94;100367.27;109061;1257;61383;-64
2023/07/07 00:51:42;;;;;;;11.60;5.10;;;;;;;13.22;99.02;100369.77;108998;1257;70965;-62
2023/07/07 00:54:34;;;;;;;11.60;5.20;;;;;;;13.22;99.24;100369.13;109170;1257;68727;-61
2023/07/07 00:57:22;;;;;;;10.90;4.80;;;;;;;13.21;99.10;100370.05;109013;1257;72359;-61
2023/07/07 01:00:12;;;;;;;12.70;4.90;;;;;;;13.22;99.20;100375.69;109045;1263;60362;-62
2023/07/07 01:03:07;;;;;;;11.70;4.80;;;;;;;13.24;99.32;100376.42;109009;1260;59026;-61
2023/07/07 01:05:58;;;;;;;11.50;5.10;;;;;;;13.24;99.53;100375.11;109012;1258;72259;-61
2023/07/07 01:08:50;;;;;;;10.90;4.50;;;;;;;13.27;99.22;100380.56;109057;1259;66640;-62
2023/07/07 01:11:39;;;;;;;11.70;5.10;;;;;;;13.28;98.89;100377.25;108970;1257;71768;-60
2023/07/07 01:14:30;;;;;;;12.10;5.30;;;;;;;13.27;98.76;100376.65;109039;1256;60885;-61
2023/07/07 01:17:36;;;;;;;12.60;6.00;;;;;;;13.23;98.58;100377.19;109094;1256;61375;-63
2023/07/07 01:20:31;;;;;;;13.20;5.80;;;;;;;13.20;98.63;100384.59;109090;1256;70892;-61
2023/07/07 01:23:57;;;;;;;12.30;5.10;;;;;;;13.16;98.99;100384.40;109115;1256;68034;-61
2023/07/07 01:27:26;;;;;;;12.70;5.70;;;;;;;13.10;99.21;100378.23;109245;1256;73938;-64
2023/07/07 01:30:48;;;;;;;13.50;5.20;;;;;;;13.04;99.68;100373.58;109055;1256;60351;-63
2023/07/07 01:33:37;;;;;;;12.60;5.40;;;;;;;13.03;99.15;100376.40;109183;1256;60321;-60
2023/07/07 01:36:27;;;;;;;11.60;5.30;;;;;;;13.00;99.18;100368.79;109103;1256;71426;-61
2023/07/07 01:39:17;;;;;;;10.80;4.90;;;;;;;12.99;99.65;100364.77;109099;1256;68040;-62
2023/07/07 01:42:23;;;;;;;11.60;4.70;;;;;;;12.99;99.42;100366.91;109141;1257;72491;-63
2023/07/07 01:45:35;;;;;;;10.20;4.70;;;;;;;12.98;99.52;100366.80;109133;1256;57291;-60
2023/07/07 01:48:39;;;;;;;11.80;4.70;;;;;;;12.99;99.23;100370.29;109081;1256;60472;-59
2023/07/07 01:51:54;;;;;;;14.00;5.20;;;;;;;12.98;99.26;100369.16;109089;1256;71145;-62
2023/07/07 01:54:49;;;;;;;11.90;4.70;;;;;;;12.94;98.87;100367.64;109159;1256;67908;-62
2023/07/07 01:57:41;;;;;;;11.00;4.60;;;;;;;12.93;98.72;100367.21;109093;1256;72695;-63
2023/07/07 02:00:31;;;;;;;9.90;4.30;;;;;;;12.93;98.80;100362.25;109010;1256;60614;-62
2023/07/07 02:03:23;;;;;;;10.60;4.30;;;;;;;12.92;98.57;100364.61;109089;1256;60499;-64
2023/07/07 02:06:11;;;;;;;11.40;4.20;;;;;;;12.91;98.27;100364.35;109091;1256;72087;-63
2023/07/07 02:09:06;;;;;;;11.10;4.30;;;;;;;12.90;98.19;100365.83;109016;1257;68648;-61
2023/07/07 02:11:54;;;;;;;11.50;4.60;;;;;;;12.90;98.03;100368.36;109076;1256;72702;-60
2023/07/07 02:14:42;;;;;;;11.10;4.60;;;;;;;12.88;98.12;100369.75;109200;1257;58048;-63
2023/07/07 02:17:30;;;;;;;11.20;4.80;;;;;;;12.86;97.99;100376.52;109145;1256;60328;-62
2023/07/07 02:20:18;;;;;;;10.20;4.20;;;;;;;12.84;97.84;100374.73;109129;1256;73314;-63
2023/07/07 02:23:06;;;;;;;13.20;5.00;;;;;;;12.83;97.99;100376.64;109149;1256;67695;-63
2023/07/07 02:25:55;;;;;;;12.10;4.60;;;;;;;12.82;98.07;100376.33;109219;1256;72669;-61
2023/07/07 02:28:43;;;;;;;10.60;4.60;;;;;;;12.81;98.04;100373.73;109188;1256;59456;-59
2023/07/07 02:31:33;;;;;;;11.90;4.30;;;;;;;12.79;98.02;100370.13;109158;1256;59004;-60
2023/07/07 02:34:21;;;;;;;9.40;3.90;;;;;;;12.79;97.90;100373.91;109268;1256;71044;-63
2023/07/07 02:37:12;;;;;;;9.70;4.00;;;;;;;12.78;97.73;100378.77;109167;1256;68336;-62
2023/07/07 02:40:05;;;;;;;10.80;4.40;;;;;;;12.77;97.88;100379.36;109094;1256;73748;-61
2023/07/07 02:42:53;;;;;;;10.30;4.30;;;;;;;12.77;97.80;100380.42;109120;1256;57990;-63
2023/07/07 02:45:44;;;;;;;12.60;4.50;;;;;;;12.77;97.54;100382.55;109130;1256;58832;-65
2023/07/07 02:48:32;;;;;;;10.00;4.40;;;;;;;12.78;97.54;100383.77;109028;1256;73158;-63
2023/07/07 02:51:20;;;;;;;9.80;4.30;;;;;;;12.80;97.60;100385.75;109135;1256;66506;-60
2023/07/07 02:54:08;;;;;;;10.80;4.40;;;;;;;12.81;97.38;100381.58;109131;1260;74410;-60
2023/07/07 02:56:56;;;;;;;8.60;4.20;;;;;;;12.85;97.43;100384.05;109199;1256;58589;-61
2023/07/07 02:59:44;;;;;;;9.80;4.10;;;;;;;12.88;97.22;100382.74;109308;1256;60290;-60
2023/07/07 03:02:32;;;;;;;11.80;3.90;;;;;;;12.92;97.37;100384.18;109315;1256;72323;-62
2023/07/07 03:05:23;;;;;;;9.00;4.00;;;;;;;12.98;96.89;100386.03;109157;1256;66556;-62
2023/07/07 03:08:12;;;;;;;10.40;4.20;;;;;;;13.06;96.81;100386.83;109096;1256;73743;-62
2023/07/07 03:11:07;;;;;;;10.20;4.30;;;;;;;13.13;96.78;100383.17;109242;1256;59333;-62
2023/07/07 03:13:56;;;;;;;11.90;4.00;;;;;;;13.23;95.92;100389.16;109034;1256;58523;-61
2023/07/07 03:16:51;;;;;;;10.80;3.60;;;;;;;13.32;95.28;100388.77;109053;1256;73263;-66
2023/07/07 03:19:45;;;;;;;8.70;3.60;;;;;;;13.40;93.83;100393.56;109179;1256;68093;-62
2023/07/07 03:22:38;;;;;;;7.80;3.70;;;;;;;13.53;92.99;100394.51;109089;1256;72821;-62
2023/07/07 03:25:28;;;;;;;9.70;3.90;;;;;;;13.64;92.41;100400.02;109094;1256;56813;-63
2023/07/07 03:28:20;;;;;;;8.90;2.80;;;;;;;13.71;91.57;100406.51;109064;1256;58820;-62
2023/07/07 03:31:38;;;;;;;9.60;3.10;;;;;;;13.77;90.95;100411.36;109033;1256;70113;-62
2023/07/07 03:34:28;;;;;;;11.00;3.70;;;;;;;13.82;90.59;100410.61;109203;1256;67072;-62
2023/07/07 03:37:16;;;;;;;9.50;3.00;;;;;;;13.87;89.74;100416.59;109156;1256;72534;-61
2023/07/07 03:40:06;;;;;;;8.70;3.20;;;;;;;13.91;89.21;100418.30;109076;1256;60869;-62
2023/07/07 03:42:57;;;;;;;11.10;3.50;;;;;;;13.97;88.81;100420.53;109069;1256;59065;-63
2023/07/07 03:45:46;;;;;;;7.10;2.90;;;;;;;14.01;88.20;100421.30;109070;1256;71137;-62
2023/07/07 03:48:35;;;;;;;8.40;3.10;;;;;;;14.04;87.83;100425.81;109134;1257;67967;-62
2023/07/07 03:51:26;;;;;;;7.80;3.20;;;;;;;14.09;87.77;100427.52;109239;1256;70676;-63
2023/07/07 03:54:15;;;;;;;9.20;3.20;;;;;;;14.16;87.54;100424.05;109078;1256;58000;-61
2023/07/07 03:57:03;;;;;;;9.10;2.90;;;;;;;14.26;87.31;100424.85;109147;1256;58805;-63
2023/07/07 03:59:53;;;;;;;8.00;3.00;;;;;;;14.35;86.64;100426.37;109123;1256;73234;-64
2023/07/07 04:02:43;;;;;;;10.10;3.40;;;;;;;14.44;86.04;100427.70;109207;1256;67952;-61
2023/07/07 04:05:45;;;;;;;7.10;2.70;;;;;;;14.54;85.46;100426.16;108891;1256;72500;-63
2023/07/07 04:08:37;;;;;;;7.20;2.80;;;;;;;14.65;84.17;100426.02;109107;1256;58309;-66
2023/07/07 04:11:25;;;;;;;9.20;3.00;;;;;;;14.75;83.15;100430.14;109086;1256;59779;-63
2023/07/07 04:14:13;;;;;;;8.80;2.80;;;;;;;14.87;82.19;100434.10;109034;1256;71956;-63
2023/07/07 04:17:01;;;;;;;7.70;2.70;;;;;;;15.00;81.24;100437.02;108991;1256;68444;-62
2023/07/07 04:19:50;;;;;;;7.50;2.70;;;;;;;15.14;80.82;100435.27;109193;1256;71417;-61
2023/07/07 04:22:38;;;;;;;7.80;2.70;;;;;;;15.27;79.80;100438.92;109199;1256;57995;-64
2023/07/07 04:25:30;;;;;;;7.80;2.70;;;;;;;15.38;79.17;100437.73;109018;1256;60147;-62
2023/07/07 04:28:18;;;;;;;7.30;2.40;;;;;;;15.47;78.87;100438.63;109093;1256;72296;-62
2023/07/07 04:31:13;;;;;;;9.20;2.90;;;;;;;15.59;78.53;100441.00;109250;1256;68641;-63
2023/07/07 04:34:01;;;;;;;7.20;2.30;;;;;;;15.76;77.67;100440.98;109013;1256;72428;-62
2023/07/07 04:36:49;;;;;;;8.00;2.40;;;;;;;15.99;76.70;100445.50;109052;1256;58367;-61
2023/07/07 04:39:37;;;;;;;9.00;2.60;;;;;;;16.31;74.80;100446.25;108953;1261;61365;-62
2023/07/07 04:42:25;;;;;;;7.50;2.30;;;;;;;16.71;72.46;100454.52;109064;1256;73291;-65
2023/07/07 04:45:13;;;;;;;7.40;2.10;;;;;;;17.16;71.79;100452.31;109036;1256;67610;-63
2023/07/07 04:48:01;;;;;;;9.20;3.10;;;;;;;17.54;70.28;100452.68;109121;1256;71619;-63
2023/07/07 04:50:49;;;;;;;8.50;2.90;;;;;;;17.95;67.56;100451.04;108938;1256;56922;-63
2023/07/07 04:53:39;;;;;;;7.10;2.40;;;;;;;18.11;66.38;100457.71;108981;1257;60170;-63
2023/07/07 04:56:27;;;;;;;8.40;2.40;;;;;;;18.43;65.72;100461.38;109134;1257;72032;-64
2023/07/07 04:59:16;;;;;;;6.50;2.30;;;;;;;18.72;64.52;100458.31;109044;1257;66772;-65
2023/07/07 05:02:04;;;;;;;7.00;2.40;;;;;;;18.99;63.81;100462.50;108962;1256;72926;-65
2023/07/07 05:04:53;;;;;;;6.90;2.30;;;;;;;19.34;62.56;100463.95;109028;1257;57849;-63
2023/07/07 05:07:41;;;;;;;8.10;2.40;;;;;;;19.85;61.40;100462.95;109081;1256;59453;-62
2023/07/07 05:10:29;;;;;;;7.60;2.40;;;;;;;20.46;59.91;100465.29;109087;1256;72043;-70
2023/07/07 05:13:17;;;;;;;9.20;2.30;;;;;;;21.25;58.22;100463.73;109054;1260;67625;-68
2023/07/07 05:16:13;;;;;;;7.70;2.20;;;;;;;21.97;55.62;100464.53;109039;1256;73897;-65
2023/07/07 05:19:01;;;;;;;9.40;2.80;;;;;;;22.68;52.59;100465.99;109067;1256;57342;-67
2023/07/07 05:21:50;;;;;;;7.20;2.10;;;;;;;23.33;49.93;100458.94;108828;1261;60657;-68
2023/07/07 05:24:41;;;;;;;7.10;2.10;;;;;;;23.94;48.19;100456.15;108884;1263;72284;-67
2023/07/07 05:27:29;;;;;;;6.00;1.90;;;;;;;24.41;45.22;100457.52;108931;1260;66583;-64
2023/07/07 05:30:18;;;;;;;6.90;1.90;;;;;;;24.66;43.66;100456.14;108800;1260;72487;-67
2023/07/07 05:33:06;;;;;;;7.40;2.10;;;;;;;25.27;43.72;100457.81;108985;1260;57870;-64
2023/07/07 05:35:59;;;;;;;6.90;1.90;;;;;;;26.13;42.24;100458.41;108888;1260;59949;-67
2023/07/07 05:38:47;;;;;;;6.20;1.90;;;;;;;26.64;39.40;100458.91;108871;1260;71660;-68
2023/07/07 05:41:39;;;;;;;5.90;1.80;;;;;;;26.98;38.57;100460.23;108670;1261;68831;-68
2023/07/07 05:44:27;;;;;;;6.20;1.80;;;;;;;27.12;37.13;100464.20;108767;1261;71895;-67
2023/07/07 05:47:15;;;;;;;6.20;1.70;;;;;;;27.27;36.89;100462.30;108627;1263;56903;-69
2023/07/07 05:50:06;;;;;;;6.70;1.70;;;;;;;27.38;35.86;100464.29;108559;1265;58924;-69
2023/07/07 05:52:55;;;;;;;5.60;1.60;;;;;;;27.54;34.95;100469.80;108656;1262;70757;-68
2023/07/07 05:55:46;;;;;;;6.30;1.60;;;;;;;27.70;34.31;100470.39;108541;1266;66645;-69
2023/07/07 05:58:35;;;;;;;6.90;1.40;;;;;;;28.33;33.93;100473.21;108437;1270;73795;-68
2023/07/07 06:01:23;;;;;;;7.60;1.60;;;;;;;28.63;31.36;100472.31;108626;1267;57597;-71
2023/07/07 06:04:11;;;;;;;5.40;1.30;;;;;;;28.42;31.50;100472.02;108558;1268;59391;-68
2023/07/07 06:07:02;;;;;;;7.20;1.60;;;;;;;28.29;32.42;100475.67;108476;1266;70905;-69
2023/07/07 06:09:57;;;;;;;5.50;1.50;;;;;;;28.91;31.66;100478.48;108090;1268;68057;-67
2023/07/07 06:12:45;;;;;;;5.90;1.40;;;;;;;29.43;30.44;100479.75;108582;1266;73005;-69
2023/07/07 06:15:33;;;;;;;5.30;1.30;;;;;;;29.76;29.19;100478.12;108604;1265;58463;-70
2023/07/07 06:18:22;;;;;;;5.80;1.40;;;;;;;29.89;27.85;100482.77;108512;1265;59289;-67
2023/07/07 06:21:10;;;;;;;5.40;1.40;;;;;;;30.34;27.29;100482.10;108805;1264;73033;-66
2023/07/07 06:23:59;;;;;;;5.80;1.40;;;;;;;30.85;26.82;100482.92;108855;1262;66425;-70
2023/07/07 06:26:50;;;;;;;5.90;1.30;;;;;;;30.96;26.48;100486.27;108748;1260;72839;-69
2023/07/07 06:29:38;;;;;;;5.20;1.20;;;;;;;31.09;26.26;100487.20;108969;1258;57316;-65
2023/07/07 06:32:26;;;;;;;6.50;1.20;;;;;;;31.06;26.06;100490.56;108813;1263;58735;-67
2023/07/07 06:35:17;;;;;;;5.90;1.20;;;;;;;31.32;26.53;100496.07;108811;1262;71427;-66
2023/07/07 06:38:06;;;;;;;6.20;1.30;;;;;;;32.01;24.76;100491.17;108839;1262;66378;-70
2023/07/07 06:40:54;;;;;;;6.00;1.10;;;;;;;32.05;24.31;100492.79;108836;1262;72770;-68
2023/07/07 06:43:45;;;;;;;6.80;1.20;;;;;;;31.97;24.59;100491.65;108891;1263;56966;-65
2023/07/07 06:46:33;;;;;;;5.40;1.30;;;;;;;32.25;24.24;100494.58;108891;1264;58766;-68
2023/07/07 06:49:23;;;;;;;5.40;1.00;;;;;;;32.85;23.60;100487.83;108875;1263;72148;-69
2023/07/07 06:52:11;;;;;;;5.50;1.20;;;;;;;33.19;22.77;100487.11;108615;1262;67663;-65
2023/07/07 06:54:59;;;;;;;6.80;1.30;;;;;;;33.31;22.79;100483.77;108928;1261;74191;-67
2023/07/07 06:57:48;;;;;;;5.30;1.20;;;;;;;33.78;22.57;100485.62;108650;1264;57991;-67
2023/07/07 07:00:35;;;;;;;5.50;1.10;;;;;;;34.01;21.72;100486.15;108876;1260;60030;-66
2023/07/07 07:03:23;;;;;;;4.50;1.00;;;;;;;34.39;21.97;100486.17;108948;1259;70726;-68
2023/07/07 07:06:13;;;;;;;5.40;1.10;;;;;;;34.91;21.32;100484.86;109095;1259;65795;-68
2023/07/07 07:09:01;;;;;;;5.10;1.20;;;;;;;35.36;20.52;100488.64;108852;1260;72410;-65
2023/07/07 07:11:49;;;;;;;5.80;1.20;;;;;;;35.45;19.98;100495.50;108962;1260;56929;-68
2023/07/07 07:14:37;;;;;;;6.50;1.10;;;;;;;35.39;20.08;100493.15;109027;1257;60042;-66
2023/07/07 07:17:25;;;;;;;6.70;1.30;;;;;;;34.19;20.78;100492.06;109065;1257;70985;-67
2023/07/07 07:20:13;;;;;;;11.20;1.50;;;;;;;34.22;20.69;100493.90;109074;1257;67967;-67
2023/07/07 07:23:01;;;;;;;6.10;0.90;;;;;;;33.60;20.88;100494.84;108939;1257;71105;-69
2023/07/07 07:25:49;;;;;;;4.60;1.10;;;;;;;33.42;21.56;100499.16;109125;1256;58082;-66
2023/07/07 07:28:38;;;;;;;4.90;1.00;;;;;;;33.25;21.26;100497.45;109104;1256;58787;-70
2023/07/07 07:31:29;;;;;;;6.60;1.40;;;;;;;33.37;21.34;100504.46;109011;1256;71273;-65
2023/07/07 07:34:30;;;;;;;5.10;1.00;;;;;;;33.77;21.32;100502.52;109171;1256;67897;-66
2023/07/07 07:37:22;;;;;;;5.20;1.10;;;;;;;34.54;20.74;100502.71;109145;1256;72415;-66
2023/07/07 07:40:10;;;;;;;6.10;1.20;;;;;;;35.16;20.28;100501.74;109014;1256;56984;-64
2023/07/07 07:42:57;;;;;;;5.00;1.00;;;;;;;35.06;19.57;100503.80;109141;1256;60040;-65
2023/07/07 07:45:48;;;;;;;4.90;1.10;;;;;;;34.69;20.04;100508.98;109146;1256;72261;-64
2023/07/07 07:48:39;;;;;;;5.30;1.20;;;;;;;35.05;20.03;100506.80;109023;1257;66640;-65
2023/07/07 07:51:37;;;;;;;6.00;1.10;;;;;;;35.69;19.51;100509.79;109064;1256;73575;-67
2023/07/07 07:54:28;;;;;;;5.50;1.20;;;;;;;35.88;19.25;100511.80;109073;1259;58990;-67
2023/07/07 07:57:19;;;;;;;7.30;1.50;;;;;;;36.42;19.02;100511.34;109154;1257;60675;-66
2023/07/07 08:00:09;;;;;;;5.40;1.20;;;;;;;36.43;18.83;100509.60;109060;1256;72121;-66
2023/07/07 08:03:01;;;;;;;6.80;1.30;;;;;;;36.64;19.00;100506.44;109019;1257;69036;-66
2023/07/07 08:05:50;;;;;;;6.50;1.40;;;;;;;36.69;18.42;100505.63;109141;1257;72368;-70
2023/07/07 08:08:51;;;;;;;5.30;1.00;;;;;;;36.63;18.91;100504.61;109064;1256;57084;-68
2023/07/07 08:11:48;;;;;;;5.20;1.20;;;;;;;36.58;18.65;100503.23;109111;1256;60229;-65
2023/07/07 08:14:36;;;;;;;5.50;1.00;;;;;;;36.99;18.30;100499.19;109281;1256;70812;-67
2023/07/07 08:17:25;;;;;;;4.50;1.00;;;;;;;37.29;17.87;100497.19;109093;1256;67970;-68
2023/07/07 08:20:19;;;;;;;5.50;1.10;;;;;;;37.77;17.88;100498.61;109092;1256;73506;-68
2023/07/07 08:23:07;;;;;;;5.90;1.10;;;;;;;37.72;17.44;100494.59;109093;1257;58604;-69
2023/07/07 08:25:59;;;;;;;5.60;0.90;;;;;;;37.84;17.46;100492.84;109001;1257;59287;-66
2023/07/07 08:28:53;;;;;;;4.70;1.00;;;;;;;37.59;17.45;100490.70;109009;1257;71458;-64
2023/07/07 08:31:41;;;;;;;5.80;1.10;;;;;;;37.08;18.24;100494.09;109025;1257;66766;-66
2023/07/07 08:34:32;;;;;;;5.20;1.10;;;;;;;35.62;19.58;100494.42;108900;1257;71700;-67
2023/07/07 08:37:40;;;;;;;7.70;1.30;;;;;;;34.79;20.14;100491.00;109062;1257;57974;-69
2023/07/07 08:40:36;;;;;;;6.50;1.30;;;;;;;34.50;20.49;100495.11;109108;1257;60393;-66
2023/07/07 08:43:29;;;;;;;6.00;1.40;;;;;;;33.05;21.89;100496.87;108975;1257;72279;-66
2023/07/07 08:46:39;;;;;;;6.40;1.40;;;;;;;31.72;23.73;100498.56;109027;1257;68976;-67
2023/07/07 08:49:59;;;;;;;5.90;1.40;;;;;;;30.30;24.43;100495.42;109036;1257;71684;-68
2023/07/07 08:52:53;;;;;;;5.80;1.60;;;;;;;29.24;26.64;100498.27;108971;1257;57959;-65
2023/07/07 08:56:02;;;;;;;6.30;1.70;;;;;;;29.15;27.25;100499.52;109070;1257;60452;-66
2023/07/07 08:59:21;;;;;;;7.00;1.70;;;;;;;29.84;27.02;100501.73;109007;1257;73131;-65
2023/07/07 09:02:25;;;;;;;7.00;1.60;;;;;;;31.44;25.12;100497.23;108984;1260;67979;-65
2023/07/07 09:05:40;;;;;;;5.30;1.40;;;;;;;32.66;23.01;100493.86;109102;1257;72415;-65
2023/07/07 09:09:22;;;;;;;6.00;1.50;;;;;;;33.70;21.53;100490.75;108970;1257;58951;-66
2023/07/07 09:12:37;;;;;;;5.20;1.30;;;;;;;34.30;20.39;100490.42;108701;1265;60774;-68
2023/07/07 09:15:36;;;;;;;6.10;1.40;;;;;;;33.03;21.98;100492.27;108538;1264;72945;-67
2023/07/07 09:18:36;;;;;;;6.20;1.30;;;;;;;33.01;22.07;100495.89;108610;1263;68696;-66
2023/07/07 09:21:49;;;;;;;5.50;1.30;;;;;;;33.38;21.94;100492.79;108664;1263;73690;-68
2023/07/07 09:24:54;;;;;;;6.00;1.50;;;;;;;32.73;22.08;100494.89;108627;1266;58663;-69
2023/07/07 09:27:53;;;;;;;4.90;1.20;;;;;;;31.43;23.65;100500.42;108722;1263;60198;-70
2023/07/07 09:30:58;;;;;;;5.70;1.40;;;;;;;30.36;24.75;100500.11;108471;1267;72090;-68
2023/07/07 09:33:46;;;;;;;7.00;1.50;;;;;;;30.67;25.09;100497.42;108449;1268;67942;-64
2023/07/07 09:37:12;;;;;;;5.70;1.40;;;;;;;31.66;23.74;100495.50;108462;1267;72637;-66
2023/07/07 09:40:40;;;;;;;4.60;1.30;;;;;;;32.60;22.61;100491.48;108325;1267;57876;-67
2023/07/07 09:43:56;;;;;;;5.70;1.40;;;;;;;33.38;21.67;100492.90;108300;1269;59979;-67
2023/07/07 09:46:53;;;;;;;7.40;1.60;;;;;;;33.42;21.37;100494.70;108274;1269;72654;-68
2023/07/07 09:49:50;;;;;;;6.40;1.20;;;;;;;34.03;21.12;100495.21;108620;1264;68107;-66
2023/07/07 09:52:57;;;;;;;6.90;1.20;;;;;;;34.74;19.42;100501.32;108721;1264;72629;-68
2023/07/07 09:55:55;;;;;;;5.80;1.20;;;;;;;35.52;18.50;100498.17;108675;1264;57133;-65
2023/07/07 09:59:17;;;;;;;5.60;1.10;;;;;;;35.69;18.27;100498.98;108698;1264;59054;-65
2023/07/07 10:02:17;;;;;;;6.80;1.30;;;;;;;35.51;18.31;100497.27;107960;1270;72470;-66
2023/07/07 10:05:09;;;;;;;5.40;1.10;;;;;;;35.87;18.45;100492.25;108339;1269;66983;-69
2023/07/07 10:08:00;;;;;;;6.10;1.30;;;;;;;36.37;17.99;100492.38;108411;1267;71456;-69
2023/07/07 10:11:18;;;;;;;5.40;1.20;;;;;;;36.82;17.90;100497.95;108344;1268;57121;-66
2023/07/07 10:14:16;;;;;;;4.60;1.20;;;;;;;36.59;16.87;100501.90;108275;1267;60398;-68
2023/07/07 10:17:13;;;;;;;6.60;1.10;;;;;;;36.14;17.71;100496.87;108334;1267;71149;-66
2023/07/07 10:20:05;;;;;;;6.40;1.30;;;;;;;35.31;19.18;100497.63;108356;1267;66840;-67
2023/07/07 10:22:53;;;;;;;6.50;1.20;;;;;;;35.71;19.23;100493.07;108353;1267;72226;-67
2023/07/07 10:25:46;;;;;;;5.40;1.20;;;;;;;35.89;19.08;100494.13;108424;1267;57015;-66
2023/07/07 10:28:37;;;;;;;6.70;1.30;;;;;;;34.73;19.53;100494.59;108514;1267;58846;-65
2023/07/07 10:31:28;;;;;;;5.10;1.20;;;;;;;33.31;21.31;100490.83;108119;1267;72503;-65
2023/07/07 10:34:51;;;;;;;5.30;1.00;;;;;;;32.12;22.23;100493.05;108385;1267;66634;-65
2023/07/07 10:37:46;;;;;;;6.10;1.70;;;;;;;30.90;23.43;100486.01;108227;1267;74076;-68
2023/07/07 10:40:34;;;;;;;5.30;1.40;;;;;;;31.56;22.60;100484.82;108896;1261;57143;-65
2023/07/07 10:43:24;;;;;;;5.80;1.40;;;;;;;32.80;21.88;100480.76;108964;1257;60068;-67
2023/07/07 10:46:13;;;;;;;5.50;1.30;;;;;;;33.68;20.83;100482.29;108969;1257;71005;-68
2023/07/07 10:49:04;;;;;;;5.20;1.40;;;;;;;34.50;20.33;100485.17;108994;1257;68786;-70
2023/07/07 10:52:24;;;;;;;5.80;1.30;;;;;;;35.47;19.20;100478.08;108966;1257;74202;-67
2023/07/07 10:56:13;;;;;;;6.20;1.30;;;;;;;35.72;17.72;100482.61;109044;1257;58035;-67
2023/07/07 10:59:48;;;;;;;7.10;1.20;;;;;;;36.36;17.92;100484.23;109020;1257;59576;-68
2023/07/07 11:03:01;;;;;;;4.90;1.30;;;;;;;37.09;17.15;100478.56;109039;1257;73073;-68
2023/07/07 11:06:33;;;;;;;5.30;1.10;;;;;;;37.57;16.67;100476.67;109050;1257;68190;-67
2023/07/07 11:09:33;;;;;;;4.60;1.20;;;;;;;37.67;17.08;100481.36;109039;1257;72581;-67
2023/07/07 11:13:01;;;;;;;6.90;1.40;;;;;;;37.53;18.50;100485.42;109034;1258;57866;-71
2023/07/07 11:16:21;;;;;;;5.10;1.20;;;;;;;36.93;19.67;100497.94;109065;1257;58956;-68
2023/07/07 11:19:34;;;;;;;6.50;1.60;;;;;;;36.29;20.07;100495.17;108707;1263;72202;-71
2023/07/07 11:22:49;;;;;;;5.50;1.50;;;;;;;35.24;20.91;100492.63;108567;1267;66715;-67
2023/07/07 11:26:13;;;;;;;7.80;1.70;;;;;;;34.17;22.30;100482.16;108533;1267;73842;-70
2023/07/07 11:29:41;;;;;;;7.80;1.60;;;;;;;33.70;24.22;100486.13;108423;1267;57771;-69
2023/07/07 11:32:45;;;;;;;6.60;1.40;;;;;;;33.50;25.09;100490.64;108298;1268;60380;-68
2023/07/07 11:35:50;;;;;;;6.70;1.70;;;;;;;33.24;25.65;100490.98;108298;1268;72217;-71
2023/07/07 11:39:09;;;;;;;5.90;1.40;;;;;;;32.94;25.97;100484.25;108353;1268;66455;-70
2023/07/07 11:42:59;;;;;;;7.50;1.60;;;;;;;32.09;26.77;100488.27;108410;1268;71457;-68
2023/07/07 11:46:36;;;;;;;8.00;1.60;;;;;;;31.32;27.62;100488.34;107796;1274;58075;-71
2023/07/07 11:50:03;;;;;;;7.00;1.50;;;;;;;30.33;28.61;100482.75;107856;1273;61090;-71
2023/07/07 11:53:14;;;;;;;6.50;1.40;;;;;;;29.27;29.56;100487.76;107871;1271;72667;-71
2023/07/07 11:56:23;;;;;;;6.40;1.50;;;;;;;28.40;30.68;100491.64;108228;1268;66671;-67
2023/07/07 11:59:41;;;;;;;6.20;1.30;;;;;;;27.89;32.40;100499.89;108318;1268;73642;-71
2023/07/07 12:02:38;;;;;;;7.10;1.90;;;;;;;27.58;33.02;100500.55;108346;1268;56894;-68
2023/07/07 12:05:53;;;;;;;6.80;1.60;;;;;;;27.36;33.29;100499.84;108578;1263;58870;-69
2023/07/07 12:09:06;;;;;;;6.40;1.80;;;;;;;26.97;34.19;100497.48;108516;1263;73272;-71
2023/07/07 12:12:36;;;;;;;5.90;1.70;;;;;;;26.72;35.03;100489.30;108635;1263;66348;-69
2023/07/07 12:15:51;;;;;;;6.00;1.90;;;;;;;26.56;34.79;100487.53;108665;1263;71875;-69
2023/07/07 12:18:44;;;;;;;5.60;1.50;;;;;;;26.46;35.17;100492.30;108189;1269;57178;-68
2023/07/07 12:21:39;;;;;;;8.20;1.80;;;;;;;26.45;35.24;100495.53;108213;1273;60362;-68
2023/07/07 12:24:42;;;;;;;8.10;1.60;;;;;;;26.45;35.13;100499.92;108691;1262;72022;-66
2023/07/07 12:27:45;;;;;;;6.90;1.80;;;;;;;26.43;35.31;100496.03;108440;1262;306364;-67
2023/07/07 12:30:46;;;;;;;7.70;1.60;;;;;;;26.38;35.57;100496.43;108711;1262;73711;-67
2023/07/07 12:33:42;;;;;;;6.60;1.60;;;;;;;26.43;35.78;100497.67;108869;1262;57499;-67
2023/07/07 12:36:33;;;;;;;7.90;1.70;;;;;;;26.42;35.11;100503.97;108746;1262;60444;-67
2023/07/07 12:39:22;;;;;;;5.80;1.50;;;;;;;26.36;34.83;100503.19;108632;1262;74070;-68
2023/07/07 12:42:16;;;;;;;6.60;1.60;;;;;;;26.30;35.56;100500.10;108720;1262;67897;-66
2023/07/07 12:45:38;;;;;;;6.80;1.80;;;;;;;26.12;35.51;100502.89;108748;1262;72929;-67
2023/07/07 12:48:29;;;;;;;8.30;2.20;;;;;;;25.92;36.44;100499.60;108368;1269;57252;-67
2023/07/07 12:51:21;;;;;;;6.70;1.80;;;;;;;25.74;36.39;100500.02;107996;1271;61056;-68
2023/07/07 12:54:30;;;;;;;5.60;1.80;;;;;;;25.67;36.81;100497.53;107835;1271;72783;-69
2023/07/07 12:57:25;;;;;;;6.90;2.20;;;;;;;25.65;36.53;100495.11;108371;1269;66394;-69
2023/07/07 13:00:33;;;;;;;5.60;1.60;;;;;;;25.66;36.91;100489.61;108074;1270;73683;-69
2023/07/07 13:03:22;;;;;;;7.90;1.80;;;;;;;25.80;36.63;100495.36;108251;1270;58932;-67
2023/07/07 13:06:30;;;;;;;6.50;1.80;;;;;;;25.69;36.72;100503.66;108290;1269;58939;-70
2023/07/07 13:09:23;;;;;;;5.70;1.60;;;;;;;25.48;36.79;100506.78;108199;1269;71557;-68
2023/07/07 13:12:37;;;;;;;7.50;1.70;;;;;;;25.34;37.93;100509.69;108490;1269;67959;-66
2023/07/07 13:15:26;;;;;;;8.20;1.60;;;;;;;25.30;38.52;100506.04;108500;1268;72740;-65
2023/07/07 13:18:19;;;;;;;6.30;1.90;;;;;;;25.25;38.09;100510.73;108353;1270;57587;-66
2023/07/07 13:21:15;;;;;;;6.70;1.80;;;;;;;25.15;37.72;100506.55;108214;1269;59285;-65
2023/07/07 13:24:05;;;;;;;7.00;1.80;;;;;;;24.97;37.63;100510.92;108543;1265;72885;-66
2023/07/07 13:26:55;;;;;;;5.10;1.30;;;;;;;24.91;38.04;100515.79;108976;1258;67707;-70